createdAt,value
2022-11-24T00:00:50.515Z,99454.34
2022-11-24T00:03:58.309Z,99459.41
2022-11-24T00:07:01.231Z,99456.81
2022-11-24T00:10:04.818Z,99463.81
2022-11-24T00:13:07.726Z,99475.22
2022-11-24T00:16:14.918Z,99476.22
2022-11-24T00:19:19.863Z,99481.59
2022-11-24T00:22:22.992Z,99479.12
2022-11-24T00:25:25.848Z,99488.91
2022-11-24T00:28:28.775Z,99489.03
2022-11-24T00:31:35.529Z,99497.56
2022-11-24T00:34:38.817Z,99493.31
2022-11-24T00:37:41.672Z,99505.37
2022-11-24T00:40:46.018Z,99504.41
2022-11-24T00:43:49.132Z,99506.34
2022-11-24T00:46:52.112Z,99512.50
2022-11-24T00:49:55.052Z,99518.59
2022-11-24T00:52:57.954Z,99516.78
2022-11-24T00:56:01.037Z,99528.19
2022-11-24T00:59:04.383Z,99530.78
2022-11-24T01:02:07.827Z,99536.16
2022-11-24T01:05:11.464Z,99532.72
2022-11-24T01:08:15.246Z,99532.06
2022-11-24T01:11:27.187Z,99537.44
2022-11-24T01:14:32.156Z,99539.22
2022-11-24T01:17:35.230Z,99541.03
2022-11-24T01:20:38.985Z,99545.72
2022-11-24T01:23:42.076Z,99545.19
2022-11-24T01:26:45.120Z,99547.97
2022-11-24T01:29:48.120Z,99543.41
2022-11-24T01:32:50.995Z,99545.88
2022-11-24T01:35:53.941Z,99552.22
2022-11-24T01:38:56.872Z,99552.22
2022-11-24T01:42:02.442Z,99548.78
2022-11-24T01:45:33.246Z,99555.78
2022-11-24T01:48:44.036Z,99562.12
2022-11-24T01:51:55.406Z,99555.94
2022-11-24T01:55:06.538Z,99565.72
2022-11-24T01:58:19.932Z,99566.53
2022-11-24T02:01:23.197Z,99568.84
2022-11-24T02:04:29.249Z,99568.84
2022-11-24T02:07:32.621Z,99575.03
2022-11-24T02:10:35.857Z,99570.78
2022-11-24T02:13:39.669Z,99580.41
2022-11-24T02:16:44.911Z,99582.19
2022-11-24T02:19:55.954Z,99582.03
2022-11-24T02:23:21.097Z,99582.03
2022-11-24T02:26:41.859Z,99588.44
2022-11-24T02:29:45.006Z,99585.38
2022-11-24T02:32:47.965Z,99582.94
2022-11-24T02:35:51.171Z,99589.19
2022-11-24T02:38:54.220Z,99583.22
2022-11-24T02:42:15.357Z,99579.50
2022-11-24T02:45:19.018Z,99582.94
2022-11-24T02:48:21.949Z,99593.38
2022-11-24T02:51:25.155Z,99590.34
2022-11-24T02:54:28.717Z,99587.38
2022-11-24T02:57:31.905Z,99584.13
2022-11-24T03:00:35.287Z,99583.28
2022-11-24T03:03:38.345Z,99589.34
2022-11-24T03:06:41.344Z,99587.19
2022-11-24T03:09:44.448Z,99588.44
2022-11-24T03:12:47.394Z,99586.81
2022-11-24T03:15:50.316Z,99593.16
2022-11-24T03:18:53.785Z,99597.56
2022-11-24T03:21:56.745Z,99590.00
2022-11-24T03:24:59.728Z,99589.63
2022-11-24T03:28:02.745Z,99587.63
2022-11-24T03:31:07.498Z,99597.53
2022-11-24T03:34:10.858Z,99600.75
2022-11-24T03:37:13.823Z,99605.75
2022-11-24T03:40:18.420Z,99605.53
2022-11-24T03:43:21.326Z,99601.28
2022-11-24T03:46:24.325Z,99608.56
2022-11-24T03:49:27.753Z,99605.16
2022-11-24T03:52:30.666Z,99610.66
2022-11-24T03:55:33.567Z,99610.66
2022-11-24T03:58:36.805Z,99618.09
2022-11-24T04:01:40.316Z,99623.84
2022-11-24T04:04:48.460Z,99622.22
2022-11-24T04:07:57.187Z,99625.63
2022-11-24T04:11:00.195Z,99614.53
2022-11-24T04:14:02.997Z,99629.34
2022-11-24T04:17:05.909Z,99627.03
2022-11-24T04:20:09.919Z,99631.28
2022-11-24T04:23:12.945Z,99639.75
2022-11-24T04:26:15.811Z,99645.84
2022-11-24T04:29:19.083Z,99646.66
2022-11-24T04:32:21.942Z,99655.69
2022-11-24T04:35:25.463Z,99664.84
2022-11-24T04:39:23.121Z,99667.31
2022-11-24T04:41:51.537Z,99667.16
2022-11-24T04:44:54.439Z,99672.91
2022-11-24T04:47:57.459Z,99675.50
2022-11-24T04:51:00.328Z,99683.88
2022-11-24T04:54:03.356Z,99682.09
2022-11-24T04:57:06.388Z,99688.78
2022-11-24T05:00:10.000Z,99687.53
2022-11-24T05:03:12.984Z,99684.31
2022-11-24T05:06:16.015Z,99685.16
2022-11-24T05:09:19.133Z,99685.69
2022-11-24T05:12:22.417Z,99706.94
2022-11-24T05:15:26.235Z,99689.19
2022-11-24T05:18:29.259Z,99702.78
2022-11-24T05:21:32.352Z,99697.28
2022-11-24T05:24:35.524Z,99704.81
2022-11-24T05:27:38.512Z,99708.91
2022-11-24T05:30:42.112Z,99708.16
2022-11-24T05:33:46.022Z,99709.94
2022-11-24T05:36:54.850Z,99715.03
2022-11-24T05:39:57.977Z,99723.38
2022-11-24T05:43:00.888Z,99725.53
2022-11-24T05:46:03.803Z,99726.44
2022-11-24T05:49:06.832Z,99732.47
2022-11-24T05:52:09.888Z,99743.75
2022-11-24T05:55:14.976Z,99753.22
2022-11-24T05:58:17.877Z,99750.09
2022-11-24T06:01:20.963Z,99765.09
2022-11-24T06:04:23.963Z,99762.47
2022-11-24T06:07:26.851Z,99771.72
2022-11-24T06:10:29.942Z,99769.94
2022-11-24T06:13:32.870Z,99775.81
2022-11-24T06:16:36.758Z,99777.47
2022-11-24T06:19:42.125Z,99778.44
2022-11-24T06:22:45.437Z,99785.44
2022-11-24T06:25:51.473Z,99791.34
2022-11-24T06:28:54.768Z,99800.00
2022-11-24T06:31:58.163Z,99810.16
2022-11-24T06:35:01.062Z,99807.69
2022-11-24T06:38:05.601Z,99820.59
2022-11-24T06:41:12.794Z,99814.25
2022-11-24T06:44:15.905Z,99826.19
2022-11-24T06:47:18.989Z,99827.03
2022-11-24T06:50:22.184Z,99834.03
2022-11-24T06:53:25.639Z,99841.72
2022-11-24T06:56:28.508Z,99847.47
2022-11-24T06:59:31.474Z,99854.09
2022-11-24T07:02:35.057Z,99859.97
2022-11-24T07:05:38.766Z,99863.25
2022-11-24T07:08:41.672Z,99865.59
2022-11-24T07:11:44.647Z,99876.56
2022-11-24T07:14:47.588Z,99882.97
2022-11-24T07:17:50.519Z,99877.16
2022-11-24T07:20:53.314Z,99886.06
2022-11-24T07:23:57.174Z,99891.34
2022-11-24T07:27:00.022Z,99895.88
2022-11-24T07:30:04.674Z,99902.13
2022-11-24T07:33:07.583Z,99904.31
2022-11-24T07:36:10.590Z,99915.81
2022-11-24T07:39:13.644Z,99915.66
2022-11-24T07:42:17.566Z,99920.97
2022-11-24T07:45:21.366Z,99924.91
2022-11-24T07:48:24.899Z,99918.56
2022-11-24T07:51:28.206Z,99928.72
2022-11-24T07:54:31.903Z,99925.22
2022-11-24T07:57:35.257Z,99927.00
2022-11-24T08:00:38.305Z,99936.38
2022-11-24T08:03:42.097Z,99935.38
2022-11-24T08:06:47.508Z,99934.78
2022-11-24T08:09:52.737Z,99941.03
2022-11-24T08:12:56.052Z,99936.41
2022-11-24T08:16:00.100Z,99945.16
2022-11-24T08:19:03.763Z,99944.34
2022-11-24T08:22:06.866Z,99951.56
2022-11-24T08:25:10.097Z,99948.50
2022-11-24T08:28:17.465Z,99947.53
2022-11-24T08:31:21.085Z,99953.94
2022-11-24T08:34:28.004Z,99953.78
2022-11-24T08:37:31.309Z,99957.75
2022-11-24T08:40:34.456Z,99959.03
2022-11-24T08:43:37.617Z,99959.22
2022-11-24T08:46:41.091Z,99964.03
2022-11-24T08:49:44.682Z,99965.69
2022-11-24T08:52:47.957Z,99963.25
2022-11-24T08:55:51.761Z,99959.88
2022-11-24T08:58:56.543Z,99961.91
2022-11-24T09:01:59.725Z,99962.91
2022-11-24T09:05:03.296Z,99965.44
2022-11-24T09:08:06.237Z,99962.50
2022-11-24T09:11:14.670Z,99971.47
2022-11-24T09:14:17.566Z,99966.34
2022-11-24T09:17:20.644Z,99973.09
2022-11-24T09:23:44.991Z,99982.09
2022-11-24T09:26:48.091Z,99976.91
2022-11-24T09:29:50.939Z,99982.59
2022-11-24T09:32:56.439Z,99975.09
2022-11-24T09:36:00.741Z,99979.78
2022-11-24T09:39:04.237Z,99980.81
2022-11-24T09:42:25.664Z,99984.25
2022-11-24T09:46:05.147Z,99983.91
2022-11-24T09:49:14.839Z,99977.87
2022-11-24T09:52:23.759Z,99978.37
2022-11-24T09:55:49.156Z,99984.63
2022-11-24T09:58:55.268Z,99982.50
2022-11-24T10:01:58.299Z,99982.25
2022-11-24T10:05:01.339Z,99980.47
2022-11-24T10:08:17.505Z,99982.25
2022-11-24T10:11:34.033Z,99989.16
2022-11-24T10:14:47.691Z,99986.56
2022-11-24T10:18:00.504Z,99986.84
2022-11-24T10:21:19.392Z,99986.97
2022-11-24T10:24:37.823Z,99986.81
2022-11-24T10:27:45.140Z,99990.75
2022-11-24T10:30:48.449Z,99999.13
2022-11-24T10:33:51.817Z,99985.19
2022-11-24T10:37:22.225Z,99986.37
2022-11-24T10:40:57.021Z,99990.66
2022-11-24T10:44:01.100Z,99984.59
2022-11-24T10:47:04.499Z,99987.56
2022-11-24T10:50:29.073Z,99979.84
2022-11-24T10:53:33.250Z,99986.72
2022-11-24T10:56:43.947Z,99990.00
2022-11-24T10:59:46.969Z,99997.00
2022-11-24T11:02:51.739Z,99997.97
2022-11-24T11:06:18.301Z,99994.19
2022-11-24T11:09:24.038Z,99995.19
2022-11-24T11:12:46.019Z,99991.88
2022-11-24T11:15:49.290Z,99985.31
2022-11-24T11:18:52.684Z,99986.97
2022-11-24T11:22:24.205Z,99986.31
2022-11-24T11:25:34.056Z,99992.72
2022-11-24T11:28:37.069Z,99981.56
2022-11-24T11:31:41.595Z,99982.59
2022-11-24T11:34:45.142Z,99981.94
2022-11-24T11:37:49.513Z,99997.25
2022-11-24T11:40:52.925Z,100004.72
2022-11-24T11:44:29.313Z,99993.59
2022-11-24T11:47:34.919Z,100000.84
2022-11-24T11:51:21.034Z,99992.16
2022-11-24T11:54:23.135Z,99997.25
2022-11-24T11:58:08.223Z,99994.78
2022-11-24T12:01:23.711Z,99991.00
2022-11-24T12:04:41.980Z,100001.25
2022-11-24T12:08:02.355Z,100003.88
2022-11-24T12:11:20.295Z,100007.97
2022-11-24T12:14:43.159Z,100004.53
2022-11-24T12:17:56.026Z,100009.47
2022-11-24T12:21:30.505Z,100003.94
2022-11-24T12:25:05.499Z,100016.13
2022-11-24T12:28:30.189Z,100018.91
2022-11-24T12:31:46.985Z,100024.22
2022-11-24T12:35:00.522Z,100022.59
2022-11-24T12:38:32.311Z,100017.00
2022-11-24T12:41:42.973Z,100022.25
2022-11-24T12:45:14.467Z,100019.28
2022-11-24T12:48:28.583Z,100037.09
2022-11-24T12:51:43.029Z,100029.19
2022-11-24T12:54:45.971Z,100033.59
2022-11-24T12:58:24.673Z,100026.47
2022-11-24T13:01:55.428Z,100035.78
2022-11-24T13:05:17.934Z,100029.22
2022-11-24T13:08:21.529Z,100037.81
2022-11-24T13:11:24.835Z,100034.34
2022-11-24T13:14:37.818Z,100036.44
2022-11-24T13:17:59.473Z,100032.69
2022-11-24T13:21:49.192Z,100034.13
2022-11-24T13:25:15.440Z,100044.31
2022-11-24T13:29:05.779Z,100038.91
2022-11-24T13:32:09.204Z,100045.06
2022-11-24T13:35:16.982Z,100031.44
2022-11-24T13:38:40.245Z,100042.06
2022-11-24T13:41:43.196Z,100036.84
2022-11-24T13:44:48.171Z,100040.59
2022-11-24T13:47:51.264Z,100037.81
2022-11-24T13:50:54.608Z,100036.16
2022-11-24T13:54:00.515Z,100035.50
2022-11-24T13:57:42.015Z,100032.22
2022-11-24T14:01:23.328Z,100047.25
2022-11-24T14:04:31.173Z,100044.78
2022-11-24T14:07:35.329Z,100038.06
2022-11-24T14:10:38.581Z,100046.09
2022-11-24T14:13:42.104Z,100050.13
2022-11-24T14:16:45.352Z,100045.03
2022-11-24T14:19:55.076Z,100060.87
2022-11-24T14:22:58.758Z,100060.22
2022-11-24T14:26:03.634Z,100072.66
2022-11-24T14:29:20.578Z,100072.13
2022-11-24T14:32:24.510Z,100079.16
2022-11-24T14:35:36.133Z,100074.22
2022-11-24T14:38:39.616Z,100071.91
2022-11-24T14:41:44.734Z,100078.28
2022-11-24T14:44:54.646Z,100076.06
2022-11-24T14:47:57.739Z,100079.16
2022-11-24T14:51:19.957Z,100089.09
2022-11-24T14:54:25.038Z,100094.13
2022-11-24T14:57:33.774Z,100086.84
2022-11-24T15:00:37.212Z,100102.19
2022-11-24T15:03:40.453Z,100098.91
2022-11-24T15:06:45.888Z,100098.53
2022-11-24T15:09:53.327Z,100097.31
2022-11-24T15:13:01.195Z,100103.16
2022-11-24T15:16:08.683Z,100100.41
2022-11-24T15:19:15.729Z,100112.66
2022-11-24T15:22:38.294Z,100114.22
2022-11-24T15:25:41.401Z,100110.25
2022-11-24T15:28:47.029Z,100119.50
2022-11-24T15:31:52.895Z,100120.62
2022-11-24T15:34:56.426Z,100126.28
2022-11-24T15:37:59.787Z,100121.63
2022-11-24T15:41:03.437Z,100127.53
2022-11-24T15:44:06.741Z,100134.16
2022-11-24T15:47:10.320Z,100131.56
2022-11-24T15:50:14.911Z,100140.78
2022-11-24T15:53:31.680Z,100142.44
2022-11-24T15:56:37.188Z,100148.34
2022-11-24T15:59:40.641Z,100154.12
2022-11-24T16:02:44.238Z,100153.19
2022-11-24T16:05:49.179Z,100159.25
2022-11-24T16:08:53.288Z,100162.81
2022-11-24T16:11:56.591Z,100164.66
2022-11-24T16:14:59.679Z,100172.75
2022-11-24T16:18:05.619Z,100174.00
2022-11-24T16:21:09.860Z,100170.59
2022-11-24T16:24:13.756Z,100169.06
2022-11-24T16:27:16.950Z,100167.28
2022-11-24T16:30:20.634Z,100162.63
2022-11-24T16:33:24.182Z,100165.91
2022-11-24T16:36:28.847Z,100164.12
2022-11-24T16:39:32.653Z,100170.03
2022-11-24T16:42:35.977Z,100179.37
2022-11-24T16:45:45.010Z,100179.25
2022-11-24T16:48:51.815Z,100179.41
2022-11-24T16:51:54.920Z,100186.41
2022-11-24T16:54:58.581Z,100189.84
2022-11-24T16:58:05.422Z,100188.75
2022-11-24T17:01:11.134Z,100196.31
2022-11-24T17:04:15.290Z,100199.31
2022-11-24T17:07:19.691Z,100200.69
2022-11-24T17:10:23.463Z,100198.09
2022-11-24T17:13:32.928Z,100210.88
2022-11-24T17:16:39.568Z,100213.75
2022-11-24T17:19:44.294Z,100219.47
2022-11-24T17:22:47.816Z,100223.59
2022-11-24T17:25:52.240Z,100221.03
2022-11-24T17:28:56.792Z,100232.72
2022-11-24T17:32:00.614Z,100229.41
2022-11-24T17:35:04.124Z,100231.56
2022-11-24T17:38:07.675Z,100228.44
2022-11-24T17:41:11.794Z,100243.66
2022-11-24T17:44:15.408Z,100245.72
2022-11-24T17:47:19.228Z,100251.91
2022-11-24T17:50:26.767Z,100248.03
2022-11-24T17:53:30.944Z,100253.91
2022-11-24T17:56:34.886Z,100249.09
2022-11-24T17:59:39.165Z,100259.50
2022-11-24T18:02:42.799Z,100262.84
2022-11-24T18:05:46.746Z,100271.72
2022-11-24T18:08:50.604Z,100263.19
2022-11-24T18:11:54.743Z,100268.38
2022-11-24T18:14:58.464Z,100273.28
2022-11-24T18:18:03.869Z,100277.91
2022-11-24T18:21:08.777Z,100278.47
2022-11-24T18:24:14.182Z,100280.13
2022-11-24T18:27:17.744Z,100287.25
2022-11-24T18:30:21.760Z,100289.69
2022-11-24T18:33:25.267Z,100290.81
2022-11-24T18:36:30.810Z,100293.59
2022-11-24T18:39:35.799Z,100297.28
2022-11-24T18:42:39.592Z,100299.47
2022-11-24T18:45:43.409Z,100299.38
2022-11-24T18:48:47.679Z,100302.69
2022-11-24T18:51:51.474Z,100306.41
2022-11-24T18:54:55.293Z,100301.59
2022-11-24T18:58:03.617Z,100309.03
2022-11-24T19:01:15.645Z,100312.47
2022-11-24T19:04:20.538Z,100312.72
2022-11-24T19:07:24.461Z,100311.06
2022-11-24T19:10:34.101Z,100308.59
2022-11-24T19:13:40.296Z,100318.78
2022-11-24T19:16:51.195Z,100316.25
2022-11-24T19:19:55.009Z,100319.66
2022-11-24T19:22:58.680Z,100314.69
2022-11-24T19:26:08.879Z,100315.53
2022-11-24T19:29:15.288Z,100316.44
2022-11-24T19:32:20.778Z,100329.28
2022-11-24T19:35:24.670Z,100334.75
2022-11-24T19:38:31.204Z,100339.13
2022-11-24T19:41:35.407Z,100339.34
2022-11-24T19:44:39.324Z,100351.78
2022-11-24T19:47:43.801Z,100348.91
2022-11-24T19:50:48.385Z,100351.63
2022-11-24T19:53:52.921Z,100363.25
2022-11-24T19:56:57.139Z,100363.94
2022-11-24T20:00:07.054Z,100371.41
2022-11-24T20:03:11.380Z,100371.19
2022-11-24T20:06:24.068Z,100381.34
2022-11-24T20:09:37.949Z,100383.53
2022-11-24T20:12:44.275Z,100392.06
2022-11-24T20:15:50.535Z,100395.97
2022-11-24T20:19:01.037Z,100397.03
2022-11-24T20:22:05.119Z,100403.53
2022-11-24T20:25:11.793Z,100409.06
2022-11-24T20:28:16.293Z,100404.03
2022-11-24T20:31:36.029Z,100407.97
2022-11-24T20:34:39.526Z,100405.22
2022-11-24T20:41:27.215Z,100394.41
2022-11-24T20:44:34.987Z,100404.72
2022-11-24T20:47:38.074Z,100400.81
2022-11-24T20:50:51.018Z,100405.50
2022-11-24T20:53:57.884Z,100415.69
2022-11-24T20:57:01.456Z,100424.28
2022-11-24T21:00:05.546Z,100423.50
2022-11-24T21:03:08.914Z,100428.88
2022-11-24T21:06:13.924Z,100435.66
2022-11-24T21:09:20.356Z,100438.84
2022-11-24T21:12:24.981Z,100432.16
2022-11-24T21:15:29.860Z,100432.47
2022-11-24T21:18:34.256Z,100437.41
2022-11-24T21:21:38.293Z,100431.66
2022-11-24T21:24:43.012Z,100442.41
2022-11-24T21:27:46.519Z,100436.63
2022-11-24T21:30:49.742Z,100440.50
2022-11-24T21:33:56.987Z,100438.03
2022-11-24T21:37:02.879Z,100439.00
2022-11-24T21:40:07.209Z,100441.34
2022-11-24T21:43:12.535Z,100432.69
2022-11-24T21:46:16.342Z,100445.75
2022-11-24T21:49:20.815Z,100442.16
2022-11-24T21:52:23.793Z,100443.00
2022-11-24T21:55:28.117Z,100446.16
2022-11-24T21:58:32.543Z,100451.13
2022-11-24T22:01:35.664Z,100445.75
2022-11-24T22:04:38.765Z,100448.38
2022-11-24T22:07:41.976Z,100446.31
2022-11-24T22:10:44.915Z,100440.37
2022-11-24T22:13:48.640Z,100446.16
2022-11-24T22:16:51.605Z,100443.56
2022-11-24T22:19:55.464Z,100447.81
2022-11-24T22:22:58.603Z,100462.97
2022-11-24T22:26:12.712Z,100474.66
2022-11-24T22:29:15.992Z,100470.13
2022-11-24T22:32:19.004Z,100468.34
2022-11-24T22:35:21.992Z,100484.84
2022-11-24T22:38:25.470Z,100478.78
2022-11-24T22:41:28.406Z,100479.75
2022-11-24T22:44:31.300Z,100469.44
2022-11-24T22:47:34.096Z,100477.56
2022-11-24T22:50:37.121Z,100482.94
2022-11-24T22:53:40.315Z,100492.84
2022-11-24T22:56:43.177Z,100499.28
2022-11-24T22:59:46.589Z,100498.34
2022-11-24T23:02:49.918Z,100494.06
2022-11-24T23:05:52.974Z,100501.78
2022-11-24T23:08:57.470Z,100508.66
2022-11-24T23:12:00.396Z,100506.88
2022-11-24T23:15:03.836Z,100510.03
2022-11-24T23:18:06.806Z,100509.22
2022-11-24T23:21:15.082Z,100516.25
2022-11-24T23:24:18.044Z,100515.28
2022-11-24T23:27:21.236Z,100520.09
2022-11-24T23:30:24.313Z,100513.78
2022-11-24T23:33:27.356Z,100523.12
2022-11-24T23:36:31.116Z,100510.06
2022-11-24T23:39:34.290Z,100520.38
2022-11-24T23:42:37.238Z,100521.22
2022-11-24T23:45:40.288Z,100523.81
2022-11-24T23:48:43.888Z,100521.22
2022-11-24T23:51:47.239Z,100519.16
2022-11-24T23:55:05.770Z,100521.50
2022-11-24T23:58:09.321Z,100522.19
